Time;durP1;ratioP1;P1;durP2;ratioP2;P2;SDS_P1;SDS_P2;PMS_P1;PMS_P2;Temp;Humidity;BMP_temperature;BMP_pressure;BME280_temperature;BME280_humidity;BME280_pressure;Samples;Min_cycle;Max_cycle;Signal;HPM_P1;HPM_P2
2021/04/15 00:00:46;;;;;;;10.95;5.90;;;-0.60;99.90;;;;;;5076730;28;20097;-69
2021/04/15 00:03:17;;;;;;;10.07;6.88;;;-0.50;99.90;;;;;;5085267;28;20536;-69
2021/04/15 00:05:45;;;;;;;11.40;6.53;;;-0.40;99.90;;;;;;5093130;28;20488;-70
2021/04/15 00:08:13;;;;;;;10.70;6.47;;;-0.40;99.90;;;;;;5098662;28;20520;-69
2021/04/15 00:10:43;;;;;;;10.40;6.85;;;-0.30;99.90;;;;;;5103764;28;20047;-70
2021/04/15 00:13:32;;;;;;;9.90;6.13;;;-0.40;99.90;;;;;;5093665;28;20127;-70
2021/04/15 00:15:59;;;;;;;9.63;6.18;;;-0.50;99.90;;;;;;5108441;28;20047;-70
2021/04/15 00:18:46;;;;;;;8.18;6.03;;;-0.60;99.90;;;;;;5112421;28;20056;-70
2021/04/15 00:21:21;;;;;;;9.38;5.13;;;-0.70;99.90;;;;;;5092602;28;20063;-69
2021/04/15 00:23:47;;;;;;;10.40;6.97;;;-0.70;99.90;;;;;;5101047;28;20421;-70
2021/04/15 00:26:16;;;;;;;11.57;6.70;;;-0.70;99.90;;;;;;5095109;28;20450;-69
2021/04/15 00:28:43;;;;;;;11.88;6.22;;;-0.70;99.90;;;;;;5113615;28;20054;-70
2021/04/15 00:31:10;;;;;;;9.68;6.28;;;-0.70;99.90;;;;;;5102975;28;20047;-70
2021/04/15 00:33:36;;;;;;;15.15;7.82;;;-0.70;99.90;;;;;;5102399;28;20522;-69
2021/04/15 00:36:04;;;;;;;12.65;8.10;;;-0.60;99.90;;;;;;5113528;28;20047;-70
2021/04/15 00:38:31;;;;;;;11.18;6.75;;;-0.70;99.90;;;;;;5113081;28;20052;-70
2021/04/15 00:40:59;;;;;;;9.15;5.75;;;-0.70;99.90;;;;;;5107258;28;20107;-70
2021/04/15 00:43:31;;;;;;;10.40;6.95;;;-0.70;99.90;;;;;;5111543;28;20139;-70
2021/04/15 00:46:00;;;;;;;7.88;5.28;;;-0.70;99.90;;;;;;5106009;28;20040;-70
2021/04/15 00:48:41;;;;;;;9.98;6.55;;;-0.70;99.90;;;;;;5108855;28;20040;-70
2021/04/15 00:51:35;;;;;;;10.05;5.85;;;-0.80;99.90;;;;;;5106236;28;20051;-70
2021/04/15 00:54:14;;;;;;;8.98;5.15;;;-0.90;99.90;;;;;;5111864;28;20051;-70
2021/04/15 00:56:41;;;;;;;10.65;6.25;;;-1.00;99.90;;;;;;5113168;28;20043;-69
2021/04/15 00:59:08;;;;;;;12.55;7.00;;;-1.10;99.90;;;;;;5110351;28;20505;-69
2021/04/15 01:01:35;;;;;;;11.60;6.38;;;-1.10;99.90;;;;;;5096820;28;20043;-70
2021/04/15 01:04:02;;;;;;;13.50;7.38;;;-1.10;99.90;;;;;;5112389;28;20044;-70
2021/04/15 01:06:29;;;;;;;11.20;6.82;;;-1.10;99.90;;;;;;5111825;28;20163;-70
2021/04/15 01:08:59;;;;;;;11.55;8.32;;;-1.10;99.90;;;;;;5111620;28;20084;-70
2021/04/15 01:11:54;;;;;;;15.02;9.55;;;-1.10;99.90;;;;;;5108848;28;20414;-69
2021/04/15 01:14:33;;;;;;;16.50;9.55;;;-1.00;99.90;;;;;;5111445;28;20168;-70
2021/04/15 01:17:08;;;;;;;16.17;9.52;;;-0.90;99.90;;;;;;5112681;28;20147;-69
2021/04/15 01:20:20;;;;;;;12.75;8.77;;;-1.00;99.90;;;;;;5109361;28;20040;-70
2021/04/15 01:23:13;;;;;;;13.52;7.85;;;-1.10;99.90;;;;;;5047515;28;20122;-69
2021/04/15 01:26:17;;;;;;;15.17;8.33;;;-1.00;99.90;;;;;;5010077;28;20053;-70
2021/04/15 01:29:21;;;;;;;12.15;7.47;;;-1.10;99.90;;;;;;5104382;28;20508;-69
2021/04/15 01:32:28;;;;;;;11.35;8.13;;;-1.20;99.90;;;;;;5108598;28;20551;-69
2021/04/15 01:35:08;;;;;;;14.00;8.30;;;-1.30;99.90;;;;;;5111791;28;20052;-69
2021/04/15 01:37:50;;;;;;;12.75;7.72;;;-1.30;99.90;;;;;;5111526;28;20116;-69
2021/04/15 01:40:25;;;;;;;15.77;8.88;;;-1.40;99.90;;;;;;5113220;28;20047;-69
2021/04/15 01:43:25;;;;;;;16.38;10.25;;;-1.50;99.90;;;;;;5112305;28;20139;-70
2021/04/15 01:46:16;;;;;;;16.95;9.82;;;-1.40;99.90;;;;;;5101413;28;20040;-70
2021/04/15 01:48:50;;;;;;;20.42;10.05;;;-1.40;99.90;;;;;;5112194;28;20046;-69
2021/04/15 01:51:25;;;;;;;15.65;10.70;;;-1.40;99.90;;;;;;5111348;28;20052;-69
2021/04/15 01:54:00;;;;;;;19.67;11.27;;;-1.30;99.90;;;;;;5098768;28;20040;-70
2021/04/15 01:56:36;;;;;;;17.02;10.38;;;-1.30;99.90;;;;;;5110066;28;20043;-70
2021/04/15 01:59:08;;;;;;;14.02;9.80;;;-1.30;99.90;;;;;;5110581;28;20419;-70
2021/04/15 02:02:02;;;;;;;16.92;10.75;;;-1.30;99.90;;;;;;5111205;28;20058;-70
2021/04/15 02:04:35;;;;;;;16.05;9.95;;;-1.40;99.90;;;;;;5110420;28;20075;-70
2021/04/15 02:07:10;;;;;;;15.85;10.07;;;-1.50;99.90;;;;;;5126162;27;20070;-69
2021/04/15 02:09:43;;;;;;;15.77;10.68;;;-1.60;99.90;;;;;;5112388;28;20035;-70
2021/04/15 02:12:20;;;;;;;18.25;12.35;;;-1.50;99.90;;;;;;5105055;28;20044;-69
2021/04/15 02:15:14;;;;;;;17.85;10.98;;;-1.50;99.90;;;;;;5110739;28;20040;-69
2021/04/15 02:17:41;;;;;;;16.52;10.85;;;-1.50;99.90;;;;;;5103926;28;20056;-70
2021/04/15 02:20:15;;;;;;;20.60;10.60;;;-1.50;99.90;;;;;;5087973;28;20071;-69
2021/04/15 02:23:06;;;;;;;19.33;11.90;;;-1.40;99.90;;;;;;5091530;28;20044;-69
2021/04/15 02:25:46;;;;;;;20.35;12.32;;;-1.40;99.90;;;;;;5106740;28;20063;-69
2021/04/15 02:28:33;;;;;;;18.63;11.57;;;-1.40;99.90;;;;;;5110597;28;20048;-70
2021/04/15 02:31:03;;;;;;;17.67;11.40;;;-1.40;99.90;;;;;;5105982;28;20098;-70
2021/04/15 02:33:50;;;;;;;19.45;10.95;;;-1.40;99.90;;;;;;5095619;28;20439;-69
2021/04/15 02:36:18;;;;;;;16.88;11.43;;;-1.50;99.90;;;;;;5101646;28;20059;-69
2021/04/15 02:39:01;;;;;;;21.50;11.98;;;-1.50;99.90;;;;;;5097064;28;20035;-70
2021/04/15 02:41:32;;;;;;;20.98;13.20;;;-1.60;99.90;;;;;;5109484;28;20047;-69
2021/04/15 02:44:10;;;;;;;19.85;13.73;;;-1.60;99.90;;;;;;5111020;28;20058;-70
2021/04/15 02:46:45;;;;;;;18.63;12.40;;;-1.50;99.90;;;;;;5109033;28;20043;-70
2021/04/15 02:49:14;;;;;;;15.95;10.00;;;-1.40;99.90;;;;;;5109505;28;20058;-69
2021/04/15 02:51:46;;;;;;;21.25;12.75;;;-1.40;99.90;;;;;;5110065;28;20051;-69
2021/04/15 02:54:37;;;;;;;16.48;11.63;;;-1.50;99.90;;;;;;5108986;28;20047;-70
2021/04/15 02:57:34;;;;;;;20.92;11.73;;;-1.70;99.90;;;;;;5101427;28;20043;-69
2021/04/15 03:00:24;;;;;;;19.88;11.75;;;-1.80;99.90;;;;;;5109310;28;20040;-70
2021/04/15 03:03:02;;;;;;;17.30;11.98;;;-2.00;99.90;;;;;;5104425;28;20458;-70
2021/04/15 03:05:38;;;;;;;21.40;10.48;;;-2.10;99.90;;;;;;5089724;28;20097;-70
2021/04/15 03:08:05;;;;;;;18.05;11.32;;;-2.20;99.90;;;;;;5096339;28;20039;-69
2021/04/15 03:10:49;;;;;;;19.85;13.55;;;-2.30;99.90;;;;;;5109428;28;20043;-70
2021/04/15 03:13:22;;;;;;;20.98;13.48;;;-2.30;99.90;;;;;;5088835;28;20040;-70
2021/04/15 03:15:58;;;;;;;21.77;14.68;;;-2.20;99.90;;;;;;5104282;28;20096;-70
2021/04/15 03:18:36;;;;;;;31.73;17.45;;;-2.20;99.90;;;;;;5105769;28;20531;-70
2021/04/15 03:21:31;;;;;;;25.60;14.77;;;-2.10;99.90;;;;;;5105049;28;20043;-69
2021/04/15 03:24:23;;;;;;;27.20;15.52;;;-2.00;99.90;;;;;;5106964;28;20039;-70
2021/04/15 03:27:10;;;;;;;24.17;15.35;;;-2.10;99.90;;;;;;5111493;27;20516;-70
2021/04/15 03:29:47;;;;;;;24.50;16.38;;;-2.10;99.90;;;;;;5109003;28;20046;-70
2021/04/15 03:32:26;;;;;;;26.15;15.80;;;-2.10;99.90;;;;;;5107808;28;20417;-70
2021/04/15 03:35:16;;;;;;;25.42;16.77;;;-2.00;99.90;;;;;;5105714;28;20366;-70
2021/04/15 03:37:52;;;;;;;26.00;17.10;;;-2.00;99.90;;;;;;5106788;28;20105;-69
2021/04/15 03:40:24;;;;;;;27.13;16.98;;;-1.90;99.90;;;;;;5110641;28;20040;-69
2021/04/15 03:43:14;;;;;;;24.33;15.32;;;-1.90;99.90;;;;;;5108541;28;20092;-69
2021/04/15 03:45:47;;;;;;;22.88;15.45;;;-1.80;99.90;;;;;;5108103;28;20074;-69
2021/04/15 03:48:19;;;;;;;25.23;16.08;;;-1.90;99.90;;;;;;5108388;28;20039;-69
2021/04/15 03:51:10;;;;;;;27.13;16.27;;;-1.90;99.90;;;;;;5108558;28;20050;-69
2021/04/15 03:54:00;;;;;;;23.15;14.88;;;-1.90;99.90;;;;;;5093474;28;20486;-69
2021/04/15 03:56:35;;;;;;;27.00;15.48;;;-1.90;99.90;;;;;;5095680;28;20168;-69
2021/04/15 03:59:11;;;;;;;26.58;17.45;;;-2.00;99.90;;;;;;5090379;28;20505;-69
2021/04/15 04:01:46;;;;;;;29.38;19.00;;;-2.10;99.90;;;;;;5112782;28;20040;-69
2021/04/15 04:04:42;;;;;;;27.58;18.25;;;-2.00;99.90;;;;;;5089613;28;20055;-69
2021/04/15 04:07:51;;;;;;;28.33;18.13;;;-1.90;99.90;;;;;;5089912;28;20040;-69
2021/04/15 04:10:40;;;;;;;25.70;16.65;;;-1.90;99.90;;;;;;5110548;28;20474;-69
2021/04/15 04:13:41;;;;;;;27.90;17.88;;;-2.00;99.90;;;;;;5109983;28;20058;-69
2021/04/15 04:16:38;;;;;;;28.17;18.30;;;-2.00;99.90;;;;;;5096354;28;20048;-69
2021/04/15 04:19:20;;;;;;;26.67;17.63;;;-2.00;99.90;;;;;;5095558;28;20424;-69
2021/04/15 04:22:14;;;;;;;30.83;18.65;;;-2.10;99.90;;;;;;5102189;28;20044;-69
2021/04/15 04:25:34;;;;;;;32.35;20.00;;;-2.00;99.90;;;;;;5101608;28;20128;-69
2021/04/15 04:28:32;;;;;;;27.92;18.20;;;-2.00;99.90;;;;;;5108517;28;20040;-69
2021/04/15 04:31:11;;;;;;;27.15;18.58;;;-2.00;99.90;;;;;;5108098;28;20130;-69
2021/04/15 04:33:46;;;;;;;31.58;20.52;;;-2.00;99.90;;;;;;5108565;28;20508;-69
2021/04/15 04:36:15;;;;;;;32.05;18.25;;;-2.00;99.90;;;;;;5106180;28;20044;-69
2021/04/15 04:38:42;;;;;;;29.10;19.55;;;-2.00;99.90;;;;;;5103078;28;20039;-69
2021/04/15 04:41:26;;;;;;;30.27;19.23;;;-2.10;99.90;;;;;;5110102;28;20047;-70
2021/04/15 04:44:14;;;;;;;33.22;20.50;;;-2.20;99.90;;;;;;5100217;28;20046;-69
2021/04/15 04:46:45;;;;;;;35.05;21.23;;;-2.10;99.90;;;;;;5108602;28;20046;-69
2021/04/15 04:49:21;;;;;;;28.90;17.92;;;-2.10;99.90;;;;;;5110445;28;20047;-69
2021/04/15 04:52:14;;;;;;;32.25;20.20;;;-2.00;99.90;;;;;;5108660;28;20036;-69
2021/04/15 04:54:41;;;;;;;33.75;19.73;;;-1.90;99.90;;;;;;5079311;28;20056;-69
2021/04/15 04:57:13;;;;;;;30.88;20.33;;;-2.00;99.90;;;;;;5102048;28;20055;-69
2021/04/15 04:59:50;;;;;;;30.10;21.15;;;-2.00;99.90;;;;;;5108407;28;20092;-69
2021/04/15 05:02:17;;;;;;;34.40;22.25;;;-2.00;99.90;;;;;;5111300;28;20105;-69
2021/04/15 05:04:44;;;;;;;29.33;19.60;;;-1.80;99.90;;;;;;5111986;28;20485;-69
2021/04/15 05:07:21;;;;;;;30.13;19.63;;;-1.80;99.90;;;;;;5111166;28;20054;-69
2021/04/15 05:09:50;;;;;;;31.90;21.17;;;-1.90;99.90;;;;;;5093298;28;20521;-69
2021/04/15 05:12:27;;;;;;;28.67;19.55;;;-1.90;99.90;;;;;;5109314;28;20048;-69
2021/04/15 05:15:14;;;;;;;33.88;18.35;;;-1.80;99.90;;;;;;5096488;28;20101;-69
2021/04/15 05:17:46;;;;;;;26.33;17.23;;;-1.80;99.90;;;;;;5112120;27;20043;-69
2021/04/15 05:20:16;;;;;;;32.67;19.17;;;-1.80;99.90;;;;;;5093003;28;20126;-69
2021/04/15 05:23:00;;;;;;;29.77;17.83;;;-1.70;99.90;;;;;;5107988;28;20096;-69
2021/04/15 05:25:37;;;;;;;26.35;17.63;;;-1.70;99.90;;;;;;5111838;28;20549;-69
2021/04/15 05:28:06;;;;;;;26.60;17.45;;;-1.60;99.90;;;;;;5109808;27;20043;-69
2021/04/15 05:30:47;;;;;;;25.48;17.33;;;-1.60;99.90;;;;;;5094266;28;20103;-71
2021/04/15 05:33:20;;;;;;;27.98;18.55;;;-1.70;99.90;;;;;;5110905;28;20036;-69
2021/04/15 05:36:02;;;;;;;27.88;17.45;;;-1.50;99.90;;;;;;5110808;28;20342;-70
2021/04/15 05:38:35;;;;;;;30.35;19.02;;;-1.30;99.90;;;;;;5100638;28;20515;-69
2021/04/15 05:41:04;;;;;;;;;;;-1.20;99.90;;;;;;5112077;28;20043;-69
2021/04/15 05:43:44;;;;;;;34.17;18.75;;;-1.10;99.90;;;;;;5104050;28;20458;-69
2021/04/15 05:46:24;;;;;;;29.63;19.15;;;-0.90;99.90;;;;;;5109897;28;20050;-70
2021/04/15 05:49:02;;;;;;;29.45;19.05;;;-0.80;99.90;;;;;;5095394;28;20062;-69
2021/04/15 05:51:39;;;;;;;28.77;18.95;;;-0.70;99.90;;;;;;5112634;28;20482;-69
2021/04/15 05:54:10;;;;;;;30.00;18.50;;;-0.70;99.90;;;;;;5111096;28;20043;-70
2021/04/15 05:57:01;;;;;;;24.48;17.27;;;-0.50;99.90;;;;;;5112140;28;20092;-69
2021/04/15 05:59:42;;;;;;;25.83;17.70;;;-0.30;99.90;;;;;;5098460;28;20043;-69
2021/04/15 06:02:42;;;;;;;27.15;16.48;;;-0.20;99.90;;;;;;5096202;28;20441;-69
2021/04/15 06:05:28;;;;;;;29.90;16.02;;;0.00;99.90;;;;;;5112413;28;20498;-69
2021/04/15 06:08:02;;;;;;;26.33;17.58;;;0.10;99.90;;;;;;5116972;27;20512;-69
2021/04/15 06:10:32;;;;;;;23.20;15.18;;;0.30;99.90;;;;;;5133412;27;20039;-69
2021/04/15 06:13:24;;;;;;;24.13;16.77;;;0.40;99.90;;;;;;5116179;27;20059;-70
2021/04/15 06:15:50;;;;;;;22.70;15.88;;;0.60;99.90;;;;;;5120153;27;20378;-69
2021/04/15 06:18:37;;;;;;;22.55;15.10;;;0.70;99.90;;;;;;5112323;28;20047;-69
2021/04/15 06:21:05;;;;;;;24.65;16.05;;;0.90;99.90;;;;;;5090016;28;20052;-70
2021/04/15 06:24:04;;;;;;;24.30;16.08;;;1.00;99.90;;;;;;5103366;28;20136;-69
2021/04/15 06:26:47;;;;;;;23.55;15.23;;;1.00;99.90;;;;;;5109388;28;20043;-69
2021/04/15 06:29:17;;;;;;;21.60;12.25;;;1.20;99.90;;;;;;5096446;28;20036;-69
2021/04/15 06:31:47;;;;;;;21.30;13.82;;;1.30;99.90;;;;;;5110192;28;20047;-69
2021/04/15 06:34:14;;;;;;;20.52;12.95;;;1.50;99.90;;;;;;5110756;27;20065;-69
2021/04/15 06:37:06;;;;;;;20.88;13.65;;;1.50;99.90;;;;;;5106343;28;20054;-70
2021/04/15 06:39:35;;;;;;;16.07;11.57;;;1.70;99.90;;;;;;5098712;28;20408;-70
2021/04/15 06:42:39;;;;;;;16.67;11.07;;;2.00;99.90;;;;;;5106828;28;20319;-69
2021/04/15 06:45:28;;;;;;;16.77;11.43;;;2.10;99.90;;;;;;5109076;28;20507;-69
2021/04/15 06:48:16;;;;;;;18.35;10.60;;;2.20;99.90;;;;;;5110583;28;20096;-69
2021/04/15 06:51:17;;;;;;;16.13;11.40;;;2.40;99.90;;;;;;5111238;28;20043;-70
2021/04/15 06:54:11;;;;;;;17.67;11.05;;;2.40;99.90;;;;;;5108925;28;20039;-69
2021/04/15 06:56:59;;;;;;;14.13;10.40;;;2.50;99.90;;;;;;5090252;28;20091;-69
2021/04/15 06:59:53;;;;;;;15.45;10.07;;;2.50;99.90;;;;;;5107543;28;20044;-69
2021/04/15 07:02:50;;;;;;;19.42;10.52;;;2.40;99.90;;;;;;5105925;28;20040;-70
2021/04/15 07:05:30;;;;;;;14.55;9.88;;;2.50;99.90;;;;;;5126070;27;20097;-70
2021/04/15 07:08:12;;;;;;;16.50;10.85;;;2.50;99.90;;;;;;5109733;28;20335;-70
2021/04/15 07:10:57;;;;;;;16.83;9.50;;;2.60;99.90;;;;;;5095537;28;20048;-69
2021/04/15 07:14:07;;;;;;;17.40;10.93;;;2.60;99.90;;;;;;5103946;28;20070;-69
2021/04/15 07:17:06;;;;;;;12.27;9.20;;;2.70;99.90;;;;;;5098968;28;20044;-70
2021/04/15 07:20:00;;;;;;;15.18;10.60;;;2.90;99.90;;;;;;5108597;28;20398;-69
2021/04/15 07:22:51;;;;;;;14.45;9.75;;;2.80;99.90;;;;;;5110482;27;20044;-70
2021/04/15 07:25:28;;;;;;;15.13;11.00;;;3.10;99.90;;;;;;5108202;28;20122;-69
2021/04/15 07:28:17;;;;;;;14.80;10.00;;;3.10;99.90;;;;;;5090479;28;20044;-69
2021/04/15 07:30:55;;;;;;;14.60;9.18;;;3.30;99.90;;;;;;5109152;28;20031;-70
2021/04/15 07:33:46;;;;;;;14.40;8.85;;;3.30;99.90;;;;;;5095798;28;20113;-69
2021/04/15 07:36:35;;;;;;;16.55;10.38;;;3.20;99.90;;;;;;5110081;28;20039;-69
2021/04/15 07:39:28;;;;;;;14.23;9.25;;;3.30;99.90;;;;;;5088386;28;20048;-70
2021/04/15 07:42:08;;;;;;;12.60;8.90;;;3.50;99.90;;;;;;5116732;27;20087;-69
2021/04/15 07:44:52;;;;;;;17.60;11.02;;;3.50;99.90;;;;;;5107805;28;20040;-70
2021/04/15 07:47:46;;;;;;;18.90;9.57;;;3.60;99.90;;;;;;5107752;28;20093;-70
2021/04/15 07:50:15;;;;;;;13.43;9.63;;;3.70;99.90;;;;;;5108781;28;20047;-69
2021/04/15 07:53:10;;;;;;;11.35;8.63;;;3.90;99.90;;;;;;5125406;27;20039;-69
2021/04/15 07:55:58;;;;;;;13.63;8.68;;;4.20;99.90;;;;;;5116513;27;20558;-70
2021/04/15 07:58:56;;;;;;;12.98;8.30;;;4.70;99.90;;;;;;5105465;28;20158;-70
2021/04/15 08:01:38;;;;;;;14.40;8.40;;;5.10;99.90;;;;;;5113819;27;20039;-69
2021/04/15 08:04:32;;;;;;;14.35;9.05;;;5.20;99.90;;;;;;5089874;28;20086;-70
2021/04/15 08:07:24;;;;;;;11.63;8.52;;;5.20;99.90;;;;;;5107294;28;20036;-70
2021/04/15 08:10:29;;;;;;;13.88;8.55;;;5.40;99.90;;;;;;5084654;28;20044;-70
2021/04/15 08:13:21;;;;;;;13.95;9.05;;;5.70;99.90;;;;;;5110393;28;20175;-70
2021/04/15 08:16:32;;;;;;;12.57;7.55;;;6.00;99.90;;;;;;5101881;28;20040;-70
2021/04/15 08:19:23;;;;;;;12.75;7.20;;;6.70;99.90;;;;;;5100973;28;20048;-71
2021/04/15 08:22:23;;;;;;;10.88;7.63;;;6.70;99.90;;;;;;5108717;28;20054;-70
2021/04/15 08:25:07;;;;;;;10.40;7.28;;;7.10;99.90;;;;;;5102068;28;20035;-71
2021/04/15 08:27:54;;;;;;;10.32;6.78;;;7.40;99.90;;;;;;5109121;28;20055;-70
2021/04/15 08:30:40;;;;;;;11.52;7.45;;;7.50;99.90;;;;;;5116536;28;20051;-71
2021/04/15 08:33:18;;;;;;;9.85;7.03;;;7.00;99.90;;;;;;5094985;28;20574;-70
2021/04/15 08:36:40;;;;;;;11.73;7.10;;;7.20;99.90;;;;;;5106502;28;20043;-70
2021/04/15 08:39:15;;;;;;;12.02;6.55;;;7.00;99.90;;;;;;5092926;28;20051;-70
2021/04/15 08:41:57;;;;;;;12.18;6.78;;;7.00;99.90;;;;;;5109750;28;20062;-69
2021/04/15 08:44:48;;;;;;;10.95;6.45;;;6.80;99.90;;;;;;5121267;27;20039;-70
2021/04/15 08:47:47;;;;;;;9.98;4.78;;;7.10;99.90;;;;;;5110961;28;20040;-70
2021/04/15 08:50:45;;;;;;;9.70;6.07;;;7.50;99.90;;;;;;5106890;28;20108;-70
2021/04/15 08:53:36;;;;;;;8.63;5.32;;;7.60;99.90;;;;;;5101711;28;20036;-70
2021/04/15 08:56:22;;;;;;;9.63;5.50;;;7.70;99.90;;;;;;5103497;28;20051;-69
2021/04/15 08:59:01;;;;;;;9.30;4.32;;;8.10;99.90;;;;;;5114051;27;20402;-70
2021/04/15 09:01:50;;;;;;;8.23;4.72;;;8.00;99.90;;;;;;5094323;28;20054;-69
2021/04/15 09:04:30;;;;;;;7.50;3.70;;;7.50;99.90;;;;;;5098506;27;20421;-70
2021/04/15 09:07:32;;;;;;;7.70;4.40;;;7.40;99.90;;;;;;5098237;28;20088;-70
2021/04/15 09:10:34;;;;;;;8.27;3.92;;;8.00;99.90;;;;;;5102342;28;20044;-70
2021/04/15 09:13:24;;;;;;;7.43;3.70;;;8.80;99.90;;;;;;5054937;28;20535;-70
2021/04/15 09:16:11;;;;;;;6.78;3.72;;;9.60;99.90;;;;;;5104771;28;20063;-68
2021/04/15 09:18:52;;;;;;;4.78;3.65;;;9.60;99.90;;;;;;5102069;28;20040;-68
2021/04/15 09:21:27;;;;;;;6.87;4.37;;;10.30;99.90;;;;;;5100221;28;20137;-69
2021/04/15 09:24:07;;;;;;;8.30;4.50;;;11.00;99.90;;;;;;5098055;27;20040;-68
2021/04/15 09:26:40;;;;;;;6.22;4.35;;;11.00;99.90;;;;;;5107063;28;20524;-69
2021/04/15 09:29:22;;;;;;;6.57;4.13;;;10.00;99.90;;;;;;5110363;28;20035;-68
2021/04/15 09:32:02;;;;;;;7.55;3.63;;;9.70;99.90;;;;;;5102501;28;20043;-70
2021/04/15 09:34:52;;;;;;;6.05;3.40;;;9.60;99.90;;;;;;5104127;28;20044;-70
2021/04/15 09:37:41;;;;;;;6.22;3.60;;;9.70;99.90;;;;;;5109060;28;20032;-70
2021/04/15 09:40:11;;;;;;;6.70;3.47;;;9.80;99.90;;;;;;5105456;28;20089;-70
2021/04/15 09:42:47;;;;;;;5.90;3.58;;;9.50;99.90;;;;;;5101715;28;20046;-70
2021/04/15 09:45:25;;;;;;;9.10;4.13;;;9.40;99.90;;;;;;5088312;28;20044;-70
2021/04/15 09:48:35;;;;;;;6.75;3.80;;;9.50;99.90;;;;;;5094658;28;20063;-70
2021/04/15 09:51:07;;;;;;;8.73;4.05;;;8.70;99.90;;;;;;5106934;28;20040;-70
2021/04/15 09:54:11;;;;;;;4.82;3.33;;;8.20;99.90;;;;;;5107554;28;20362;-70
2021/04/15 09:57:22;;;;;;;7.28;3.47;;;10.00;99.90;;;;;;5105759;28;20047;-68
2021/04/15 10:00:20;;;;;;;4.38;2.90;;;11.30;99.90;;;;;;5100142;28;20066;-68
2021/04/15 10:02:55;;;;;;;6.53;3.30;;;10.80;98.20;;;;;;5106444;28;20043;-68
2021/04/15 10:05:59;;;;;;;4.90;2.42;;;10.10;99.90;;;;;;5096130;28;20154;-68
2021/04/15 10:08:53;;;;;;;4.25;2.42;;;10.40;97.70;;;;;;5101942;27;20039;-67
2021/04/15 10:11:35;;;;;;;6.88;2.42;;;10.10;97.40;;;;;;5093189;28;20036;-68
2021/04/15 10:14:32;;;;;;;10.60;3.00;;;9.90;98.40;;;;;;5086482;28;20063;-67
2021/04/15 10:17:16;;;;;;;4.45;2.75;;;8.80;99.90;;;;;;5100568;28;20043;-70
2021/04/15 10:20:18;;;;;;;4.18;2.72;;;8.70;99.90;;;;;;5102857;28;20144;-70
2021/04/15 10:22:58;;;;;;;4.63;2.85;;;8.60;99.90;;;;;;5101929;28;20040;-71
2021/04/15 10:25:31;;;;;;;8.55;3.67;;;8.00;99.90;;;;;;5084120;28;20093;-70
2021/04/15 10:28:10;;;;;;;4.75;2.15;;;8.00;99.90;;;;;;5097909;28;20040;-69
2021/04/15 10:31:19;;;;;;;4.20;2.03;;;8.90;99.90;;;;;;5100471;28;20036;-71
2021/04/15 10:34:11;;;;;;;4.00;1.73;;;9.40;97.70;;;;;;5096822;28;20039;-69
2021/04/15 10:36:52;;;;;;;4.72;1.80;;;8.70;96.90;;;;;;5095118;28;20417;-70
2021/04/15 10:39:43;;;;;;;4.10;2.05;;;8.00;99.10;;;;;;5096665;28;20039;-70
2021/04/15 10:42:43;;;;;;;3.72;2.17;;;8.40;99.10;;;;;;5102781;28;20044;-70
2021/04/15 10:45:29;;;;;;;3.70;2.13;;;8.30;99.30;;;;;;5099508;28;20093;-70
2021/04/15 10:48:17;;;;;;;4.93;2.42;;;8.40;99.80;;;;;;5102947;27;20036;-70
2021/04/15 10:50:57;;;;;;;4.63;2.20;;;8.20;99.90;;;;;;5113910;27;20455;-70
2021/04/15 10:53:50;;;;;;;6.30;2.30;;;8.80;99.90;;;;;;5098262;28;20051;-71
2021/04/15 10:56:24;;;;;;;3.78;2.03;;;9.00;99.90;;;;;;5094710;27;20047;-70
2021/04/15 10:58:59;;;;;;;4.07;2.20;;;9.50;99.20;;;;;;5095674;28;20172;-70
2021/04/15 11:01:38;;;;;;;4.28;2.20;;;10.40;98.30;;;;;;5099763;28;20101;-70
2021/04/15 11:04:09;;;;;;;6.22;2.25;;;11.40;96.40;;;;;;5097954;28;20049;-71
2021/04/15 11:06:45;;;;;;;4.22;1.77;;;12.40;93.00;;;;;;5103750;28;20036;-69
2021/04/15 11:09:21;;;;;;;5.07;2.28;;;12.90;89.50;;;;;;5093102;28;20044;-69
2021/04/15 11:12:15;;;;;;;4.70;1.95;;;11.80;85.70;;;;;;5102861;28;20039;-69
2021/04/15 11:14:44;;;;;;;3.80;1.92;;;12.70;82.10;;;;;;5100056;28;20047;-69
2021/04/15 11:17:30;;;;;;;4.72;1.90;;;12.70;76.90;;;;;;5102738;28;20048;-69
2021/04/15 11:20:35;;;;;;;4.70;2.25;;;11.40;78.80;;;;;;5103360;28;20551;-70
2021/04/15 11:23:04;;;;;;;3.85;1.67;;;11.90;81.10;;;;;;5094719;28;20052;-69
2021/04/15 11:25:52;;;;;;;4.45;2.17;;;11.00;79.60;;;;;;5098950;28;20521;-69
2021/04/15 11:28:32;;;;;;;4.68;2.33;;;10.30;85.00;;;;;;5098550;28;20050;-71
2021/04/15 11:31:40;;;;;;;3.55;2.25;;;10.00;90.40;;;;;;5103445;28;20040;-69
2021/04/15 11:34:13;;;;;;;3.90;2.17;;;11.00;88.40;;;;;;5098306;28;20134;-71
2021/04/15 11:37:04;;;;;;;5.70;2.38;;;9.90;85.80;;;;;;5095838;28;20035;-71
2021/04/15 11:39:51;;;;;;;3.78;1.98;;;9.70;87.80;;;;;;5096385;28;20054;-71
2021/04/15 11:42:18;;;;;;;5.22;2.22;;;9.50;92.00;;;;;;5105297;28;20112;-71
2021/04/15 11:44:55;;;;;;;3.88;2.28;;;9.70;92.40;;;;;;5091338;28;20047;-71
2021/04/15 11:47:43;;;;;;;7.05;2.15;;;10.10;89.80;;;;;;5104504;28;20040;-71
2021/04/15 11:50:30;;;;;;;5.35;2.50;;;10.70;85.90;;;;;;5102178;28;20047;-71
2021/04/15 11:53:23;;;;;;;4.65;2.33;;;10.60;81.90;;;;;;5118267;27;20127;-71
2021/04/15 11:55:49;;;;;;;5.43;2.13;;;10.60;82.40;;;;;;5104910;28;20718;-71
2021/04/15 11:58:32;;;;;;;4.82;2.60;;;10.00;84.80;;;;;;5103389;28;20063;-71
2021/04/15 12:01:00;;;;;;;4.22;2.17;;;9.50;90.80;;;;;;5105637;28;20040;-71
2021/04/15 12:03:28;;;;;;;3.72;2.05;;;8.90;91.90;;;;;;5105792;28;20054;-70
2021/04/15 12:06:00;;;;;;;4.68;2.22;;;8.90;92.00;;;;;;5097796;28;20055;-71
2021/04/15 12:08:31;;;;;;;3.75;2.20;;;8.70;91.90;;;;;;5105723;28;20035;-71
2021/04/15 12:11:13;;;;;;;4.87;2.13;;;8.70;92.50;;;;;;5121602;27;20043;-70
2021/04/15 12:13:52;;;;;;;5.00;2.58;;;8.70;93.00;;;;;;5109803;28;20091;-70
2021/04/15 12:16:45;;;;;;;3.67;2.20;;;9.00;93.30;;;;;;5099616;28;20048;-71
2021/04/15 12:19:36;;;;;;;4.88;1.67;;;9.20;92.90;;;;;;5106489;28;20040;-71
2021/04/15 12:22:20;;;;;;;4.80;2.10;;;9.40;93.10;;;;;;5099531;28;20466;-71
2021/04/15 12:24:53;;;;;;;4.93;2.40;;;9.00;94.20;;;;;;5103291;28;20063;-71
2021/04/15 12:27:29;;;;;;;4.20;2.28;;;8.90;94.00;;;;;;5105825;28;20090;-71
2021/04/15 12:30:14;;;;;;;3.30;2.03;;;8.90;94.50;;;;;;5105786;28;20043;-71
2021/04/15 12:33:02;;;;;;;5.47;2.25;;;8.80;94.00;;;;;;5110123;28;20058;-70
2021/04/15 12:35:59;;;;;;;4.93;1.88;;;8.80;92.60;;;;;;5110132;28;20712;-70
2021/04/15 12:38:54;;;;;;;3.65;1.95;;;9.50;94.50;;;;;;5110546;28;20161;-70
2021/04/15 12:41:42;;;;;;;4.40;1.80;;;10.50;86.70;;;;;;5104578;28;20063;-71
2021/04/15 12:44:18;;;;;;;4.15;2.28;;;11.10;86.50;;;;;;5101258;28;20088;-70
2021/04/15 12:46:45;;;;;;;6.43;2.50;;;11.10;76.40;;;;;;5104101;28;20040;-71
2021/04/15 12:49:16;;;;;;;4.35;2.15;;;10.40;76.40;;;;;;5108234;28;20048;-70
2021/04/15 12:51:48;;;;;;;4.93;2.33;;;10.80;77.50;;;;;;5103535;28;20125;-71
2021/04/15 12:54:36;;;;;;;3.47;2.23;;;11.40;77.20;;;;;;5109245;28;20089;-71
2021/04/15 12:57:14;;;;;;;3.92;2.17;;;10.90;78.40;;;;;;5123198;27;20107;-70
2021/04/15 12:59:44;;;;;;;4.32;1.88;;;10.20;78.00;;;;;;5100852;28;20101;-70
2021/04/15 13:02:20;;;;;;;3.47;1.80;;;9.70;82.80;;;;;;5088856;28;20036;-70
2021/04/15 13:04:53;;;;;;;3.53;1.88;;;9.30;80.70;;;;;;5101399;28;20130;-70
2021/04/15 13:07:22;;;;;;;;;;;9.20;80.20;;;;;;5097463;27;20047;-70
2021/04/15 13:10:15;;;;;;;4.07;1.60;;;9.20;82.40;;;;;;5102374;28;19928;-70
2021/04/15 13:12:43;;;;;;;4.43;2.20;;;9.20;80.50;;;;;;5096581;28;20047;-70
2021/04/15 13:15:25;;;;;;;4.25;2.10;;;10.40;77.20;;;;;;5111110;28;20380;-70
2021/04/15 13:17:52;;;;;;;4.70;2.10;;;12.90;77.20;;;;;;5104427;28;20052;-70
2021/04/15 13:20:24;;;;;;;5.93;2.15;;;13.40;72.20;;;;;;5100233;28;20047;-70
2021/04/15 13:22:53;;;;;;;5.77;1.30;;;11.10;75.30;;;;;;5108268;28;20105;-67
2021/04/15 13:25:29;;;;;;;4.25;2.20;;;10.10;73.70;;;;;;5106057;28;20297;-70
2021/04/15 13:28:17;;;;;;;3.92;1.77;;;9.40;77.80;;;;;;5097220;28;20081;-70
2021/04/15 13:31:02;;;;;;;4.03;1.77;;;9.50;77.60;;;;;;5102854;28;20169;-67
2021/04/15 13:33:29;;;;;;;3.70;1.90;;;9.80;77.80;;;;;;5104524;28;20031;-68
2021/04/15 13:35:58;;;;;;;3.50;2.33;;;9.90;79.40;;;;;;5107095;28;20052;-67
2021/04/15 13:38:46;;;;;;;5.47;2.10;;;10.30;78.70;;;;;;5104505;28;20441;-68
2021/04/15 13:41:25;;;;;;;4.15;2.08;;;10.40;78.80;;;;;;5102450;28;20048;-68
2021/04/15 13:43:58;;;;;;;3.88;2.15;;;11.30;76.40;;;;;;5107061;28;20048;-69
2021/04/15 13:46:25;;;;;;;7.10;1.98;;;13.10;73.40;;;;;;5107354;28;20044;-68
2021/04/15 13:49:08;;;;;;;5.32;2.30;;;15.20;62.20;;;;;;5101356;28;20044;-67
2021/04/15 13:51:51;;;;;;;5.25;2.30;;;15.40;57.80;;;;;;5098734;28;20044;-68
2021/04/15 13:54:39;;;;;;;4.07;2.03;;;18.10;51.50;;;;;;5109095;27;20039;-68
2021/04/15 13:57:11;;;;;;;4.38;1.92;;;18.60;48.30;;;;;;5095809;28;20093;-68